Time;durP1;ratioP1;P1;durP2;ratioP2;P2;SDS_P1;SDS_P2;PMS_P1;PMS_P2;Temp;Humidity;BMP_temperature;BMP_pressure;BME280_temperature;BME280_humidity;BME280_pressure;Samples;Min_cycle;Max_cycle;Signal;HPM_P1;HPM_P2
2022/08/06 00:00:24;;;;;;;3.40;1.50;;;15.10;99.90;;;;;;5011819;28;20133;-67
2022/08/06 00:02:49;;;;;;;2.90;1.33;;;15.00;99.90;;;;;;5026937;28;20488;-63
2022/08/06 00:05:15;;;;;;;2.42;1.17;;;15.00;99.90;;;;;;5012486;28;20104;-62
2022/08/06 00:07:41;;;;;;;6.22;1.48;;;15.00;99.90;;;;;;5011701;28;20061;-63
2022/08/06 00:10:07;;;;;;;3.45;1.40;;;15.00;99.90;;;;;;5010885;28;20448;-62
2022/08/06 00:12:33;;;;;;;3.58;1.27;;;15.00;99.90;;;;;;5010584;28;20061;-62
2022/08/06 00:15:00;;;;;;;4.72;1.75;;;14.90;99.90;;;;;;5011957;28;20053;-63
2022/08/06 00:17:26;;;;;;;5.35;1.42;;;14.90;99.90;;;;;;5011773;28;20223;-66
2022/08/06 00:19:51;;;;;;;3.10;1.30;;;14.90;99.90;;;;;;5012111;28;20181;-62
2022/08/06 00:22:17;;;;;;;4.82;1.20;;;14.90;99.90;;;;;;5012185;28;20427;-62
2022/08/06 00:24:43;;;;;;;3.42;1.40;;;14.90;99.90;;;;;;5010520;28;20125;-62
2022/08/06 00:27:08;;;;;;;5.28;1.60;;;14.90;99.90;;;;;;5011756;28;20526;-62
2022/08/06 00:29:34;;;;;;;2.15;1.08;;;14.90;99.90;;;;;;5011533;28;20092;-62
2022/08/06 00:32:00;;;;;;;4.75;1.40;;;14.80;99.90;;;;;;5011700;28;20046;-62
2022/08/06 00:34:25;;;;;;;3.30;1.08;;;14.80;99.90;;;;;;5010628;28;20085;-63
2022/08/06 00:36:51;;;;;;;2.42;1.23;;;14.80;99.90;;;;;;5011549;28;20125;-63
2022/08/06 00:39:17;;;;;;;2.25;1.20;;;14.80;99.90;;;;;;5010456;28;20505;-62
2022/08/06 00:41:43;;;;;;;3.00;1.10;;;14.80;99.90;;;;;;4994003;28;20061;-63
2022/08/06 00:44:09;;;;;;;2.13;1.13;;;14.70;99.90;;;;;;5011653;28;20149;-62
2022/08/06 00:46:35;;;;;;;4.38;1.65;;;14.70;99.90;;;;;;5010852;28;20519;-63
2022/08/06 00:49:01;;;;;;;3.97;1.23;;;14.70;99.90;;;;;;5011753;28;20049;-62
2022/08/06 00:51:27;;;;;;;3.35;1.45;;;14.70;99.90;;;;;;5042745;28;20088;-62
2022/08/06 00:53:53;;;;;;;3.10;1.42;;;14.70;99.90;;;;;;5011241;28;20455;-61
2022/08/06 00:56:18;;;;;;;3.83;1.20;;;14.70;99.90;;;;;;5010571;28;20053;-63
2022/08/06 00:58:44;;;;;;;3.88;1.30;;;14.70;99.90;;;;;;5043073;28;20049;-62
2022/08/06 01:01:10;;;;;;;2.67;1.30;;;14.60;99.90;;;;;;5011634;28;20049;-63
2022/08/06 01:03:36;;;;;;;3.53;1.40;;;14.60;99.90;;;;;;5010910;28;20162;-62
2022/08/06 01:06:03;;;;;;;3.15;1.15;;;14.60;99.90;;;;;;5011653;28;20407;-66
2022/08/06 01:08:29;;;;;;;2.45;1.23;;;14.60;99.90;;;;;;5011603;28;20165;-63
2022/08/06 01:10:54;;;;;;;2.13;1.10;;;14.60;99.90;;;;;;5011270;28;20240;-62
2022/08/06 01:13:20;;;;;;;4.35;1.20;;;14.60;99.90;;;;;;4993911;28;20377;-62
2022/08/06 01:16:12;;;;;;;2.40;1.10;;;14.50;99.90;;;;;;5013492;28;20455;-63
2022/08/06 01:19:05;;;;;;;2.40;1.10;;;14.60;99.90;;;;;;5013858;28;20057;-62
2022/08/06 01:22:08;;;;;;;2.47;1.25;;;14.60;99.90;;;;;;5015067;28;20495;-62
2022/08/06 01:24:53;;;;;;;3.13;1.42;;;14.60;99.90;;;;;;5014227;28;20144;-65
2022/08/06 01:27:27;;;;;;;2.78;1.23;;;14.50;99.90;;;;;;5013910;28;20045;-62
2022/08/06 01:30:00;;;;;;;2.63;1.00;;;14.50;99.90;;;;;;5014729;28;20056;-63
2022/08/06 01:32:33;;;;;;;3.47;1.40;;;14.50;99.90;;;;;;5015108;28;20053;-63
2022/08/06 01:35:05;;;;;;;2.22;1.10;;;14.60;99.90;;;;;;5014082;28;20506;-63
2022/08/06 01:37:44;;;;;;;3.75;1.20;;;14.50;99.90;;;;;;4997530;28;20376;-62
2022/08/06 01:40:18;;;;;;;3.80;1.48;;;14.50;99.90;;;;;;5013577;28;20046;-63
2022/08/06 01:42:46;;;;;;;5.80;1.33;;;14.50;99.90;;;;;;5013325;28;20061;-64
2022/08/06 01:45:15;;;;;;;3.83;1.33;;;14.50;99.90;;;;;;5013085;28;20042;-61
2022/08/06 01:47:45;;;;;;;3.83;1.65;;;14.40;99.90;;;;;;5046288;28;20117;-62
2022/08/06 01:50:13;;;;;;;2.80;1.20;;;14.40;99.90;;;;;;4997389;28;20053;-62
2022/08/06 01:52:42;;;;;;;4.90;1.80;;;14.40;99.90;;;;;;5014387;28;20412;-65
2022/08/06 01:55:14;;;;;;;6.72;1.70;;;14.40;99.90;;;;;;5014466;28;20124;-63
2022/08/06 01:57:46;;;;;;;2.45;1.50;;;14.40;99.90;;;;;;5014264;28;20111;-66
2022/08/06 02:00:12;;;;;;;4.10;1.73;;;14.30;99.90;;;;;;5014418;28;20049;-62
2022/08/06 02:02:40;;;;;;;2.92;1.40;;;14.30;99.90;;;;;;5013138;28;20042;-63
2022/08/06 02:05:09;;;;;;;2.70;1.60;;;14.30;99.90;;;;;;5014407;28;20121;-62
2022/08/06 02:07:40;;;;;;;3.67;1.70;;;14.30;99.90;;;;;;5046213;28;20345;-62
2022/08/06 02:10:08;;;;;;;2.80;1.40;;;14.30;99.90;;;;;;5013235;28;20140;-62
2022/08/06 02:12:35;;;;;;;4.30;1.50;;;14.20;99.90;;;;;;5014276;28;20072;-62
2022/08/06 02:15:15;;;;;;;2.25;1.42;;;14.20;99.90;;;;;;5014058;28;20120;-62
2022/08/06 02:17:48;;;;;;;3.63;1.50;;;14.20;99.90;;;;;;5014284;28;20182;-65
2022/08/06 02:20:17;;;;;;;1.60;1.25;;;14.10;99.90;;;;;;5014101;28;20050;-62
2022/08/06 02:22:45;;;;;;;4.10;1.77;;;14.10;99.90;;;;;;5013898;28;20186;-66
2022/08/06 02:25:14;;;;;;;3.13;1.60;;;14.10;99.90;;;;;;5014126;28;20415;-63
2022/08/06 02:27:44;;;;;;;4.20;1.42;;;14.10;99.90;;;;;;5014083;28;20041;-62
2022/08/06 02:30:11;;;;;;;4.50;2.00;;;14.10;99.90;;;;;;5014038;28;20128;-62
2022/08/06 02:32:37;;;;;;;3.80;1.90;;;14.10;99.90;;;;;;5013184;28;20124;-59
2022/08/06 02:35:03;;;;;;;3.83;1.85;;;14.10;99.90;;;;;;5013555;28;20527;-61
2022/08/06 02:37:49;;;;;;;2.65;1.55;;;14.00;99.90;;;;;;5013709;28;20092;-59
2022/08/06 02:40:24;;;;;;;3.08;1.90;;;14.00;99.90;;;;;;5013171;28;20057;-60
2022/08/06 02:43:04;;;;;;;5.35;1.80;;;14.00;99.90;;;;;;5013288;28;20228;-60
2022/08/06 02:45:44;;;;;;;3.72;1.50;;;14.00;99.90;;;;;;5012540;28;20558;-59
2022/08/06 02:48:27;;;;;;;2.72;1.75;;;14.00;99.90;;;;;;5045106;28;20053;-60
2022/08/06 02:50:56;;;;;;;4.32;1.60;;;14.00;99.90;;;;;;5013124;28;20045;-59
2022/08/06 02:53:28;;;;;;;2.60;1.52;;;14.00;99.90;;;;;;5013514;28;20045;-59
2022/08/06 02:56:00;;;;;;;3.75;1.52;;;13.90;99.90;;;;;;5013189;28;20089;-60
2022/08/06 02:58:37;;;;;;;4.18;1.80;;;13.90;99.90;;;;;;5012078;28;20053;-60
2022/08/06 03:01:07;;;;;;;5.20;1.90;;;13.90;99.90;;;;;;5012127;28;20401;-60
2022/08/06 03:03:34;;;;;;;4.10;1.88;;;13.90;99.90;;;;;;5013447;28;20049;-60
2022/08/06 03:06:03;;;;;;;3.85;1.88;;;13.90;99.90;;;;;;5013022;28;20050;-60
2022/08/06 03:08:30;;;;;;;2.83;1.67;;;13.90;99.90;;;;;;5013255;28;20058;-60
2022/08/06 03:10:58;;;;;;;3.58;1.90;;;13.80;99.90;;;;;;5012987;28;20073;-60
2022/08/06 03:13:25;;;;;;;3.38;1.90;;;13.80;99.90;;;;;;5011910;28;20053;-60
2022/08/06 03:15:53;;;;;;;4.75;1.85;;;13.80;99.90;;;;;;5011949;28;20054;-63
2022/08/06 03:18:21;;;;;;;4.15;1.70;;;13.80;99.90;;;;;;5011794;28;20050;-60
2022/08/06 03:20:48;;;;;;;1.85;1.63;;;13.70;99.90;;;;;;5012955;28;20085;-60
2022/08/06 03:23:15;;;;;;;5.18;1.98;;;13.70;99.90;;;;;;5012563;28;20188;-61
2022/08/06 03:25:44;;;;;;;2.83;1.73;;;13.70;99.90;;;;;;5012832;28;20129;-62
2022/08/06 03:28:12;;;;;;;4.68;1.90;;;13.70;99.90;;;;;;5012376;28;20119;-61
2022/08/06 03:30:39;;;;;;;6.53;2.30;;;13.70;99.90;;;;;;5012878;28;20220;-60
2022/08/06 03:33:09;;;;;;;3.88;1.83;;;13.60;99.90;;;;;;5011240;28;20057;-60
2022/08/06 03:35:36;;;;;;;3.70;1.70;;;13.60;99.90;;;;;;5012807;28;20046;-61
2022/08/06 03:38:03;;;;;;;6.88;1.80;;;13.60;99.90;;;;;;5011640;28;20049;-61
2022/08/06 03:40:31;;;;;;;4.70;2.10;;;13.60;99.90;;;;;;5012676;28;20050;-61
2022/08/06 03:42:56;;;;;;;2.58;1.83;;;13.60;99.90;;;;;;5012332;28;20101;-62
2022/08/06 03:45:24;;;;;;;3.78;1.80;;;13.50;99.90;;;;;;5012551;28;20566;-61
2022/08/06 03:47:55;;;;;;;4.40;1.73;;;13.50;99.90;;;;;;5012214;28;20054;-58
2022/08/06 03:50:28;;;;;;;7.30;1.88;;;13.50;99.90;;;;;;5012539;28;20053;-60
2022/08/06 03:52:59;;;;;;;3.40;1.90;;;13.50;99.90;;;;;;5012499;28;20061;-60
2022/08/06 03:55:28;;;;;;;5.95;2.03;;;13.50;99.90;;;;;;5012165;28;20627;-60
2022/08/06 03:57:59;;;;;;;4.82;1.80;;;13.50;99.90;;;;;;5011885;28;20542;-60
2022/08/06 04:00:27;;;;;;;3.13;1.80;;;13.50;99.90;;;;;;4994907;28;20048;-60
2022/08/06 04:02:54;;;;;;;4.68;2.00;;;13.50;99.90;;;;;;5010815;28;20129;-60
2022/08/06 04:05:25;;;;;;;4.43;1.90;;;13.50;99.90;;;;;;5011748;28;20454;-61
2022/08/06 04:07:57;;;;;;;3.15;1.60;;;13.40;99.90;;;;;;5012166;28;20063;-60
2022/08/06 04:10:33;;;;;;;2.88;1.63;;;13.40;99.90;;;;;;5011078;28;20073;-60
2022/08/06 04:13:00;;;;;;;2.80;1.67;;;13.40;99.90;;;;;;5010839;28;20046;-64
2022/08/06 04:15:26;;;;;;;3.17;2.00;;;13.50;99.90;;;;;;5012142;28;20054;-60
2022/08/06 04:17:54;;;;;;;4.80;2.10;;;13.50;99.90;;;;;;5012123;28;20042;-64
2022/08/06 04:20:22;;;;;;;2.50;1.70;;;13.50;99.90;;;;;;5011618;28;20081;-60
2022/08/06 04:22:48;;;;;;;2.72;1.70;;;13.50;99.90;;;;;;5011916;28;20041;-60
2022/08/06 04:25:14;;;;;;;3.65;1.70;;;13.50;99.90;;;;;;4993931;28;20448;-60
2022/08/06 04:27:42;;;;;;;3.40;1.67;;;13.50;99.90;;;;;;5011993;28;20132;-60
2022/08/06 04:30:10;;;;;;;3.60;1.75;;;13.60;99.90;;;;;;5011331;28;20042;-61
2022/08/06 04:32:38;;;;;;;3.05;1.73;;;13.70;99.90;;;;;;5026967;28;20534;-60
2022/08/06 04:35:07;;;;;;;3.55;1.65;;;13.80;99.90;;;;;;5011476;28;20053;-60
2022/08/06 04:37:34;;;;;;;2.38;1.33;;;13.80;99.90;;;;;;5011838;28;20050;-61
2022/08/06 04:40:00;;;;;;;3.03;1.45;;;13.90;99.90;;;;;;5011685;28;20049;-61
2022/08/06 04:42:26;;;;;;;2.65;1.48;;;14.00;99.90;;;;;;5010474;28;20506;-60
2022/08/06 04:44:53;;;;;;;3.42;1.60;;;14.00;99.90;;;;;;5011766;28;20050;-60
2022/08/06 04:47:19;;;;;;;3.95;1.60;;;14.10;99.90;;;;;;5011260;28;20065;-60
2022/08/06 04:49:45;;;;;;;3.92;1.50;;;14.30;99.90;;;;;;5011535;28;20054;-60
2022/08/06 04:52:27;;;;;;;1.58;1.30;;;14.50;99.90;;;;;;5014229;28;20450;-60
2022/08/06 04:54:53;;;;;;;4.38;1.77;;;15.00;99.90;;;;;;5015679;28;20050;-60
2022/08/06 04:57:18;;;;;;;2.97;1.30;;;15.50;99.90;;;;;;5015185;28;20049;-60
2022/08/06 04:59:44;;;;;;;4.65;1.40;;;16.00;99.90;;;;;;5015335;28;20042;-60
2022/08/06 05:02:11;;;;;;;3.15;1.50;;;16.00;99.90;;;;;;5015003;28;20046;-60
2022/08/06 05:04:37;;;;;;;3.63;1.40;;;15.90;99.90;;;;;;5015615;28;20053;-60
2022/08/06 05:07:29;;;;;;;3.10;1.35;;;15.80;99.90;;;;;;5015605;28;20050;-60
2022/08/06 05:09:56;;;;;;;2.33;1.50;;;15.70;99.90;;;;;;5015519;28;20151;-60
2022/08/06 05:12:33;;;;;;;6.78;1.90;;;15.60;99.90;;;;;;5014846;28;20049;-59
2022/08/06 05:15:18;;;;;;;3.60;1.60;;;15.50;99.90;;;;;;5015485;28;20120;-60
2022/08/06 05:18:06;;;;;;;3.13;1.45;;;15.30;99.90;;;;;;5015440;28;20179;-60
2022/08/06 05:20:34;;;;;;;4.63;1.70;;;15.20;99.90;;;;;;5047202;28;20129;-60
2022/08/06 05:23:09;;;;;;;3.08;1.50;;;15.20;99.90;;;;;;5015154;28;20127;-60
2022/08/06 05:25:38;;;;;;;2.90;1.50;;;15.70;99.90;;;;;;5015210;28;20065;-60
2022/08/06 05:28:08;;;;;;;3.55;1.58;;;16.50;99.90;;;;;;5013833;28;20050;-62
2022/08/06 05:30:33;;;;;;;1.95;1.48;;;17.50;99.90;;;;;;5013424;28;20045;-61
2022/08/06 05:32:59;;;;;;;2.50;1.10;;;18.10;99.90;;;;;;5014791;28;20399;-59
2022/08/06 05:35:26;;;;;;;2.28;1.23;;;18.70;99.90;;;;;;5030146;28;20049;-60
2022/08/06 05:37:51;;;;;;;2.20;1.30;;;19.10;99.90;;;;;;5030546;28;20058;-60
2022/08/06 05:40:17;;;;;;;1.90;1.38;;;19.40;99.90;;;;;;5012949;28;20399;-60
2022/08/06 05:42:43;;;;;;;2.20;1.40;;;19.70;98.90;;;;;;5014828;28;20151;-61
2022/08/06 05:45:11;;;;;;;3.08;1.48;;;19.70;98.70;;;;;;5014537;28;20050;-61
2022/08/06 05:47:40;;;;;;;2.72;1.25;;;19.50;99.10;;;;;;5014842;28;20080;-61
2022/08/06 05:50:09;;;;;;;2.20;1.30;;;19.40;99.40;;;;;;5014354;28;20500;-61
2022/08/06 05:52:54;;;;;;;3.88;1.48;;;19.10;99.80;;;;;;5014235;28;20042;-61
2022/08/06 05:55:38;;;;;;;2.00;1.40;;;18.60;99.90;;;;;;5014280;28;20049;-61
2022/08/06 05:58:19;;;;;;;2.17;1.20;;;18.20;99.90;;;;;;5014570;28;20414;-62
2022/08/06 06:00:46;;;;;;;2.30;1.40;;;17.70;99.90;;;;;;5013192;28;20046;-61
2022/08/06 06:03:15;;;;;;;3.88;1.85;;;17.30;99.90;;;;;;5014412;28;20057;-65
2022/08/06 06:05:42;;;;;;;2.45;1.30;;;17.00;99.90;;;;;;5013097;28;20049;-60
2022/08/06 06:08:09;;;;;;;4.65;1.50;;;16.80;99.90;;;;;;5014338;28;20050;-61
2022/08/06 06:10:37;;;;;;;3.05;1.42;;;16.60;99.90;;;;;;5013030;28;20254;-61
2022/08/06 06:13:04;;;;;;;2.78;1.40;;;16.40;99.90;;;;;;5014476;28;20041;-61
2022/08/06 06:15:35;;;;;;;3.00;1.50;;;16.30;99.90;;;;;;5014122;28;20057;-61
2022/08/06 06:18:10;;;;;;;3.42;1.52;;;16.20;99.90;;;;;;5014381;28;20046;-61
2022/08/06 06:20:51;;;;;;;2.08;1.33;;;16.20;99.90;;;;;;4996303;28;20570;-61
2022/08/06 06:23:38;;;;;;;2.65;1.40;;;16.70;99.90;;;;;;5013826;28;20085;-62
2022/08/06 06:26:27;;;;;;;3.78;1.48;;;17.60;99.90;;;;;;5014127;28;20046;-61
2022/08/06 06:28:58;;;;;;;4.70;1.33;;;19.40;99.90;;;;;;5013206;28;20058;-61
2022/08/06 06:32:01;;;;;;;1.90;1.10;;;20.80;99.90;;;;;;5013803;28;20136;-61
2022/08/06 06:34:36;;;;;;;5.03;1.40;;;22.20;97.60;;;;;;5013587;28;20137;-60
2022/08/06 06:37:37;;;;;;;12.05;1.60;;;23.20;96.40;;;;;;5013942;28;20046;-61
2022/08/06 06:40:18;;;;;;;3.90;1.33;;;24.00;94.20;;;;;;4998714;28;20187;-63
2022/08/06 06:42:49;;;;;;;5.18;1.38;;;;;;;;;;5013706;28;20049;-62
2022/08/06 06:45:18;;;;;;;3.20;1.20;;;;;;;;;;5013825;28;20054;-61
2022/08/06 06:47:59;;;;;;;3.20;1.20;;;;;;;;;;5012179;28;20156;-62
2022/08/06 06:50:29;;;;;;;4.13;1.13;;;;;;;;;;5013287;28;20046;-61
2022/08/06 06:52:56;;;;;;;3.97;1.30;;;24.10;94.10;;;;;;5011689;28;20046;-62
2022/08/06 06:55:34;;;;;;;2.10;1.10;;;23.60;93.20;;;;;;5012936;28;20046;-62
2022/08/06 06:58:31;;;;;;;2.60;1.02;;;23.30;93.40;;;;;;5013506;28;20054;-61
2022/08/06 07:00:58;;;;;;;2.58;1.05;;;23.30;93.70;;;;;;5012292;28;20064;-62
2022/08/06 07:03:27;;;;;;;3.50;1.20;;;23.60;94.00;;;;;;5012822;28;20440;-62
2022/08/06 07:05:54;;;;;;;2.70;1.20;;;24.00;93.00;;;;;;5013319;28;20053;-62
2022/08/06 07:08:22;;;;;;;2.90;1.20;;;24.50;93.10;;;;;;5012441;28;20068;-64
2022/08/06 07:10:50;;;;;;;5.30;1.23;;;25.40;92.20;;;;;;5012433;28;20052;-63
2022/08/06 07:13:18;;;;;;;3.03;1.30;;;26.20;91.50;;;;;;5012323;28;20052;-62
2022/08/06 07:15:45;;;;;;;2.65;1.00;;;26.80;90.70;;;;;;5011694;28;20213;-63
2022/08/06 07:18:12;;;;;;;2.85;1.00;;;27.30;90.60;;;;;;5013034;28;20171;-61
2022/08/06 07:20:39;;;;;;;3.92;1.17;;;27.70;87.80;;;;;;5044590;28;20058;-60
2022/08/06 07:23:08;;;;;;;3.53;0.90;;;27.90;88.30;;;;;;5012951;28;20096;-62
2022/08/06 07:25:41;;;;;;;3.53;1.15;;;28.10;86.80;;;;;;5012504;28;20107;-61
2022/08/06 07:28:10;;;;;;;2.80;0.88;;;28.50;86.20;;;;;;5012819;28;20049;-61
2022/08/06 07:30:36;;;;;;;2.78;0.98;;;28.20;86.20;;;;;;5044389;28;20088;-62
2022/08/06 07:33:03;;;;;;;4.10;1.08;;;27.60;86.00;;;;;;5011858;28;20480;-62
2022/08/06 07:35:29;;;;;;;3.47;1.08;;;26.80;86.50;;;;;;5011336;28;20049;-62
2022/08/06 07:38:01;;;;;;;4.05;1.20;;;26.20;87.80;;;;;;5012412;28;20057;-62
2022/08/06 07:40:50;;;;;;;2.67;1.05;;;26.20;88.60;;;;;;5012395;28;20046;-65
2022/08/06 07:43:28;;;;;;;3.50;0.80;;;26.40;88.50;;;;;;5012685;28;20057;-62
2022/08/06 07:45:56;;;;;;;2.30;0.70;;;26.40;89.20;;;;;;5012327;28;20129;-62
2022/08/06 07:48:30;;;;;;;2.50;0.95;;;26.90;88.30;;;;;;5012702;28;20085;-62
2022/08/06 07:50:58;;;;;;;1.52;0.75;;;27.40;87.30;;;;;;5012284;28;20483;-62
2022/08/06 07:53:24;;;;;;;2.78;1.00;;;27.80;86.30;;;;;;5012517;28;20416;-62
2022/08/06 07:55:51;;;;;;;3.55;1.10;;;28.20;85.40;;;;;;5010578;28;20505;-61
2022/08/06 07:58:19;;;;;;;2.83;1.23;;;28.50;85.20;;;;;;5012056;28;20092;-61
2022/08/06 08:00:47;;;;;;;4.35;0.75;;;29.10;83.70;;;;;;5011869;28;20058;-62
2022/08/06 08:09:05;;;;;;;3.35;0.82;;;30.40;81.50;;;;;;5021315;28;20103;-62
2022/08/06 08:11:33;;;;;;;5.35;1.30;;;30.70;80.40;;;;;;5011818;28;20104;-61
2022/08/06 08:13:59;;;;;;;2.63;1.17;;;31.00;78.10;;;;;;5011827;28;20517;-60
2022/08/06 08:16:26;;;;;;;4.70;1.10;;;30.80;78.70;;;;;;5011962;28;20045;-62
2022/08/06 08:18:52;;;;;;;3.65;1.00;;;30.80;78.30;;;;;;5011691;28;20258;-62
2022/08/06 08:21:19;;;;;;;3.70;1.13;;;31.00;78.30;;;;;;5010936;28;20563;-63
2022/08/06 08:23:47;;;;;;;3.92;1.38;;;31.20;76.70;;;;;;5011521;28;20054;-62
2022/08/06 08:26:13;;;;;;;3.20;0.88;;;31.10;76.60;;;;;;5011959;28;20052;-62
2022/08/06 08:28:39;;;;;;;2.55;0.93;;;30.60;76.40;;;;;;5011464;28;20116;-61
2022/08/06 08:31:06;;;;;;;3.38;1.08;;;29.40;77.80;;;;;;5012120;28;20085;-63
2022/08/06 08:33:33;;;;;;;2.70;0.90;;;29.20;78.90;;;;;;5010769;28;20050;-63
2022/08/06 08:36:00;;;;;;;3.85;1.20;;;29.60;78.80;;;;;;5011544;28;20129;-61
2022/08/06 08:38:33;;;;;;;2.33;1.13;;;29.70;77.90;;;;;;5010462;28;20065;-62
2022/08/06 08:41:21;;;;;;;3.67;0.98;;;29.30;78.00;;;;;;5043437;28;20472;-62
2022/08/06 08:44:18;;;;;;;4.85;1.20;;;28.50;78.40;;;;;;5043262;28;20049;-62
2022/08/06 08:46:44;;;;;;;2.78;1.08;;;28.60;78.20;;;;;;5010827;28;20523;-61
2022/08/06 08:49:22;;;;;;;4.45;1.30;;;28.80;77.60;;;;;;5011359;28;20480;-61
2022/08/06 08:51:50;;;;;;;2.42;1.02;;;28.20;78.20;;;;;;5009599;28;20050;-62
2022/08/06 08:54:22;;;;;;;3.20;1.10;;;27.30;79.70;;;;;;5010402;28;20054;-62
2022/08/06 08:56:49;;;;;;;4.45;1.50;;;26.40;83.80;;;;;;5011298;28;20478;-62
2022/08/06 08:59:15;;;;;;;4.57;1.40;;;25.60;88.60;;;;;;5011219;28;20042;-61
2022/08/06 09:01:40;;;;;;;3.17;1.50;;;25.10;89.20;;;;;;5011104;28;20081;-61
2022/08/06 09:04:07;;;;;;;3.63;1.38;;;24.60;91.50;;;;;;5011317;28;20050;-61
2022/08/06 09:06:33;;;;;;;5.32;1.70;;;24.20;92.00;;;;;;5011423;28;20045;-61
2022/08/06 09:09:04;;;;;;;5.13;1.77;;;24.00;92.10;;;;;;5010929;28;20042;-62
2022/08/06 09:11:34;;;;;;;6.47;2.03;;;23.70;92.70;;;;;;5011020;28;20054;-62
2022/08/06 09:14:05;;;;;;;4.93;1.67;;;23.50;92.60;;;;;;5010842;28;20086;-61
2022/08/06 09:16:33;;;;;;;3.20;1.45;;;23.20;92.80;;;;;;5011192;28;20057;-61
2022/08/06 09:18:59;;;;;;;4.63;1.90;;;23.00;93.00;;;;;;5010818;28;20049;-61
2022/08/06 09:21:25;;;;;;;4.50;1.75;;;22.80;93.30;;;;;;5026504;28;20050;-61
2022/08/06 09:23:51;;;;;;;5.88;1.73;;;23.10;93.60;;;;;;5010544;28;20399;-61
2022/08/06 09:26:17;;;;;;;2.83;1.58;;;23.90;93.10;;;;;;5009739;28;20057;-62
2022/08/06 09:28:44;;;;;;;3.80;1.35;;;24.80;91.80;;;;;;5010589;28;20046;-62
2022/08/06 09:31:11;;;;;;;3.22;1.30;;;25.80;91.40;;;;;;5010936;28;20081;-62
2022/08/06 09:33:39;;;;;;;5.00;1.90;;;26.50;88.90;;;;;;5010732;28;20431;-61
2022/08/06 09:36:08;;;;;;;4.22;1.70;;;26.30;85.40;;;;;;5010906;28;20057;-62
2022/08/06 09:38:59;;;;;;;2.30;1.42;;;26.00;83.20;;;;;;5014502;28;20045;-62
2022/08/06 09:41:27;;;;;;;3.47;1.65;;;26.30;82.00;;;;;;5014704;28;20076;-62
2022/08/06 09:43:55;;;;;;;3.10;1.70;;;27.00;82.60;;;;;;5014034;28;20045;-61
2022/08/06 09:46:42;;;;;;;2.72;1.70;;;27.60;83.80;;;;;;5014195;28;20061;-61
2022/08/06 09:49:10;;;;;;;3.83;2.03;;;27.80;80.10;;;;;;5014461;28;20072;-62
2022/08/06 09:51:37;;;;;;;2.60;1.45;;;27.30;79.90;;;;;;5013574;28;20049;-63
2022/08/06 09:54:06;;;;;;;3.45;1.67;;;26.60;79.70;;;;;;5012863;28;20054;-61
2022/08/06 09:56:32;;;;;;;2.80;1.45;;;26.20;79.80;;;;;;5014511;28;20050;-61
2022/08/06 09:59:03;;;;;;;2.75;1.50;;;25.80;79.80;;;;;;5014176;28;20046;-60
2022/08/06 10:01:36;;;;;;;4.15;1.67;;;25.70;80.80;;;;;;5014245;28;20042;-60
2022/08/06 10:04:02;;;;;;;3.88;2.00;;;25.80;81.00;;;;;;5013868;28;20148;-60
2022/08/06 10:06:28;;;;;;;3.22;1.73;;;25.40;81.40;;;;;;5013087;28;20057;-59
2022/08/06 10:09:08;;;;;;;2.35;1.67;;;25.10;81.90;;;;;;5012365;28;20052;-60
2022/08/06 10:11:40;;;;;;;3.67;1.88;;;25.10;82.60;;;;;;5013950;28;20418;-61
2022/08/06 10:14:21;;;;;;;3.35;1.80;;;25.20;81.70;;;;;;5013651;28;20266;-60
2022/08/06 10:17:07;;;;;;;4.90;1.85;;;25.20;82.40;;;;;;5012588;28;20038;-64
2022/08/06 10:19:34;;;;;;;3.22;1.80;;;25.00;82.60;;;;;;5013906;28;20056;-61
2022/08/06 10:22:04;;;;;;;4.90;1.88;;;25.10;83.00;;;;;;5013385;28;20089;-59
2022/08/06 10:24:35;;;;;;;3.30;1.75;;;25.20;81.60;;;;;;5013855;28;20065;-59
2022/08/06 10:27:03;;;;;;;3.78;2.05;;;25.40;81.50;;;;;;5013670;28;20049;-60
2022/08/06 10:29:30;;;;;;;3.78;1.80;;;25.40;80.30;;;;;;5013778;28;20041;-59
2022/08/06 10:31:57;;;;;;;2.63;1.58;;;25.30;78.50;;;;;;5013210;28;20049;-60
2022/08/06 10:34:28;;;;;;;2.60;1.50;;;25.30;77.80;;;;;;5012352;28;20065;-60
2022/08/06 10:37:02;;;;;;;6.63;1.90;;;25.60;78.20;;;;;;5013124;28;20061;-59
2022/08/06 10:39:33;;;;;;;3.90;1.58;;;25.70;79.50;;;;;;5013890;28;20072;-59
2022/08/06 10:42:00;;;;;;;3.67;1.83;;;25.80;78.70;;;;;;5013597;28;20052;-59
2022/08/06 10:44:28;;;;;;;4.82;2.17;;;25.50;79.70;;;;;;5013459;28;20049;-60
2022/08/06 10:46:54;;;;;;;3.80;2.30;;;25.20;80.50;;;;;;5012262;28;20149;-60
2022/08/06 10:49:21;;;;;;;2.75;1.77;;;24.80;80.80;;;;;;5013247;28;20121;-59
2022/08/06 10:51:49;;;;;;;2.25;1.70;;;24.60;81.90;;;;;;5013534;28;20077;-60
2022/08/06 10:54:16;;;;;;;6.07;1.90;;;24.60;79.60;;;;;;5012852;28;20054;-59
2022/08/06 10:56:42;;;;;;;2.30;1.58;;;24.60;77.40;;;;;;5012988;28;20046;-59
2022/08/06 10:59:08;;;;;;;4.00;2.13;;;24.60;77.50;;;;;;5012757;28;20100;-59
2022/08/06 11:01:49;;;;;;;2.58;1.63;;;24.60;77.20;;;;;;5012962;28;20089;-59
2022/08/06 11:04:30;;;;;;;2.80;1.80;;;24.60;76.20;;;;;;5012886;28;20390;-61
2022/08/06 11:07:33;;;;;;;4.28;2.00;;;24.30;74.80;;;;;;5013044;28;20046;-63
2022/08/06 11:10:07;;;;;;;2.80;1.75;;;24.20;76.60;;;;;;5011670;28;20115;-59
2022/08/06 11:12:54;;;;;;;3.22;2.00;;;24.40;77.40;;;;;;5012887;28;20046;-59
2022/08/06 11:15:20;;;;;;;3.13;1.88;;;24.60;77.70;;;;;;5012541;28;20086;-60
2022/08/06 11:17:51;;;;;;;3.15;2.00;;;24.80;77.00;;;;;;5011809;28;20089;-60
2022/08/06 11:20:31;;;;;;;3.13;2.10;;;24.80;76.20;;;;;;5012446;28;20519;-59
2022/08/06 11:23:02;;;;;;;3.25;2.10;;;25.00;76.40;;;;;;5012515;28;20052;-59
2022/08/06 11:25:47;;;;;;;4.25;2.20;;;25.00;76.50;;;;;;5044655;28;20050;-59
2022/08/06 11:28:18;;;;;;;4.05;2.30;;;25.20;77.00;;;;;;5012597;28;20136;-59
2022/08/06 11:30:44;;;;;;;4.75;2.53;;;25.40;75.90;;;;;;5011970;28;20045;-62
2022/08/06 11:33:11;;;;;;;4.00;2.58;;;25.40;76.30;;;;;;5011903;28;20195;-58
2022/08/06 11:35:37;;;;;;;4.80;2.67;;;25.40;75.30;;;;;;5012651;28;20054;-58
2022/08/06 11:38:07;;;;;;;3.30;2.60;;;25.20;75.60;;;;;;5012226;28;20050;-58
2022/08/06 11:40:57;;;;;;;5.72;2.53;;;25.20;76.40;;;;;;5012505;28;20038;-58
2022/08/06 11:43:40;;;;;;;5.47;2.78;;;25.20;74.40;;;;;;5012254;28;20050;-58
2022/08/06 11:46:33;;;;;;;3.85;2.90;;;25.20;76.00;;;;;;4994164;28;20054;-58
2022/08/06 11:48:58;;;;;;;4.18;2.67;;;25.10;75.90;;;;;;5011575;28;20166;-61
2022/08/06 11:51:44;;;;;;;5.15;2.70;;;25.20;76.40;;;;;;5010731;28;20088;-59
2022/08/06 11:54:17;;;;;;;4.57;2.72;;;25.10;74.60;;;;;;5012036;28;20056;-58
2022/08/06 11:57:01;;;;;;;4.30;3.05;;;24.90;74.70;;;;;;5012333;28;20050;-59
2022/08/06 11:59:44;;;;;;;4.95;3.00;;;24.80;76.80;;;;;;5011727;28;20057;-60
2022/08/06 12:02:13;;;;;;;3.88;3.08;;;24.80;76.00;;;;;;5011876;28;20089;-59
2022/08/06 12:04:38;;;;;;;5.20;2.80;;;24.80;75.30;;;;;;5012263;28;20058;-58
2022/08/06 12:07:24;;;;;;;5.30;3.63;;;24.70;75.20;;;;;;5010775;28;20050;-63
2022/08/06 12:10:05;;;;;;;5.20;3.17;;;24.70;75.80;;;;;;5012106;28;20100;-58
2022/08/06 12:12:40;;;;;;;4.70;3.30;;;24.50;76.40;;;;;;5012117;28;20080;-59
2022/08/06 12:15:11;;;;;;;4.68;2.97;;;24.50;76.40;;;;;;5011620;28;20104;-62
2022/08/06 12:17:59;;;;;;;5.97;3.38;;;24.50;75.50;;;;;;5011948;28;20084;-60
2022/08/06 12:20:34;;;;;;;3.78;3.00;;;24.60;75.30;;;;;;5009909;28;20520;-60
2022/08/06 12:23:01;;;;;;;4.32;3.60;;;24.70;75.80;;;;;;5005947;28;20136;-60
2022/08/06 12:25:32;;;;;;;5.38;3.30;;;24.70;72.60;;;;;;5008798;28;20133;-60
2022/08/06 12:27:58;;;;;;;5.47;3.20;;;24.80;72.60;;;;;;5008516;28;20045;-60
2022/08/06 12:30:24;;;;;;;3.92;2.97;;;25.00;72.00;;;;;;5043107;28;20096;-60
2022/08/06 12:33:00;;;;;;;5.35;3.30;;;24.90;71.30;;;;;;5006801;28;20480;-60
2022/08/06 12:35:26;;;;;;;4.05;3.22;;;24.80;73.10;;;;;;5011179;28;20125;-60
2022/08/06 12:37:52;;;;;;;4.47;3.20;;;24.50;74.60;;;;;;5011492;28;20104;-60
2022/08/06 12:40:28;;;;;;;6.03;3.30;;;24.30;75.70;;;;;;5011154;28;20038;-59
2022/08/06 12:43:02;;;;;;;5.00;3.30;;;24.20;75.90;;;;;;5011232;28;20128;-60
2022/08/06 12:45:31;;;;;;;4.50;3.30;;;24.20;76.20;;;;;;5009689;28;20042;-60
2022/08/06 12:48:02;;;;;;;4.53;3.20;;;24.10;76.30;;;;;;5011371;28;20046;-60
2022/08/06 12:50:29;;;;;;;6.22;3.10;;;24.00;76.30;;;;;;5011303;28;20134;-60
2022/08/06 12:53:10;;;;;;;3.67;2.90;;;24.20;76.40;;;;;;5011435;28;20061;-60
2022/08/06 12:55:48;;;;;;;3.78;2.85;;;24.30;74.90;;;;;;5010979;28;20508;-60
2022/08/06 12:58:15;;;;;;;4.72;3.22;;;24.30;75.80;;;;;;5011056;28;20050;-60
2022/08/06 13:00:43;;;;;;;4.95;3.45;;;24.20;76.20;;;;;;5011533;28;20050;-59
2022/08/06 13:03:10;;;;;;;4.25;3.05;;;24.20;77.30;;;;;;5010953;28;20108;-60
2022/08/06 13:05:36;;;;;;;4.15;2.92;;;24.20;77.60;;;;;;5011277;28;20049;-60
2022/08/06 13:08:03;;;;;;;6.32;3.55;;;24.00;77.00;;;;;;5010795;28;20049;-60
2022/08/06 13:10:29;;;;;;;6.80;3.70;;;23.90;77.40;;;;;;5010016;28;20108;-59
2022/08/06 13:13:01;;;;;;;3.97;2.92;;;23.90;77.80;;;;;;5014841;28;20056;-59